createdAt,value
2018-12-09T00:02:19.746Z,12.02
2018-12-09T00:05:01.196Z,11.83
2018-12-09T00:07:32.935Z,11.65
2018-12-09T00:10:04.749Z,11.47
2018-12-09T00:12:36.250Z,11.32
2018-12-09T00:15:06.350Z,11.17
2018-12-09T00:17:36.181Z,11.06
2018-12-09T00:20:08.143Z,10.93
2018-12-09T00:22:59.930Z,10.83
2018-12-09T00:25:33.927Z,10.74
2018-12-09T00:28:05.318Z,10.67
2018-12-09T00:30:40.208Z,10.64
2018-12-09T00:33:11.441Z,10.59
2018-12-09T00:35:46.209Z,10.58
2018-12-09T00:38:17.613Z,10.56
2018-12-09T00:43:55.102Z,10.57
2018-12-09T00:46:26.523Z,10.57
2018-12-09T00:49:01.431Z,10.60
2018-12-09T00:51:29.715Z,10.62
2018-12-09T00:54:04.466Z,10.65
2018-12-09T00:56:39.333Z,10.67
2018-12-09T00:59:10.554Z,10.69
2018-12-09T01:04:48.879Z,10.74
2018-12-09T01:07:20.892Z,10.78
2018-12-09T01:09:52.853Z,10.80
2018-12-09T01:12:24.858Z,10.85
2018-12-09T01:14:56.734Z,10.57
2018-12-09T01:17:26.799Z,10.94
2018-12-09T01:19:58.854Z,10.99
2018-12-09T01:22:35.246Z,11.02
2018-12-09T01:25:07.078Z,10.86
2018-12-09T01:27:41.630Z,11.10
2018-12-09T01:30:12.917Z,11.13
2018-12-09T01:38:49.053Z,11.26
2018-12-09T01:41:21.065Z,11.29
2018-12-09T01:43:52.905Z,11.32
2018-12-09T01:46:27.496Z,11.35
2018-12-09T01:48:59.718Z,11.37
2018-12-09T01:51:34.526Z,11.40
2018-12-09T01:54:10.980Z,11.43
2018-12-09T01:56:42.928Z,11.45
2018-12-09T01:59:14.621Z,11.47
2018-12-09T02:01:45.881Z,11.49
2018-12-09T02:04:20.759Z,11.52
2018-12-09T02:06:50.799Z,11.56
2018-12-09T02:09:22.935Z,11.57
2018-12-09T02:11:57.555Z,11.60
2018-12-09T02:14:28.846Z,11.61
2018-12-09T02:17:20.478Z,11.64
2018-12-09T02:19:55.441Z,11.66
2018-12-09T02:22:30.238Z,11.67
2018-12-09T02:25:04.427Z,11.67
2018-12-09T02:27:39.294Z,11.67
2018-12-09T02:30:10.990Z,11.67
2018-12-09T02:32:42.897Z,11.68
2018-12-09T02:35:14.846Z,11.68
2018-12-09T02:37:46.898Z,11.69
2018-12-09T02:40:19.018Z,11.68
2018-12-09T02:42:49.139Z,11.69
2018-12-09T02:45:23.742Z,11.39
2018-12-09T02:47:53.654Z,11.70
2018-12-09T02:50:25.755Z,11.42
2018-12-09T02:52:59.823Z,11.69
2018-12-09T02:55:30.079Z,11.70
2018-12-09T02:58:19.883Z,11.69
2018-12-09T03:00:51.465Z,11.39
2018-12-09T03:03:20.067Z,11.70
2018-12-09T03:06:02.728Z,11.70
2018-12-09T03:11:35.911Z,11.68
2018-12-09T03:14:07.774Z,11.68
2018-12-09T03:16:36.100Z,11.69
2018-12-09T03:19:10.585Z,11.68
2018-12-09T03:21:42.239Z,11.69
2018-12-09T03:24:24.091Z,11.69
2018-12-09T03:29:58.442Z,11.69
2018-12-09T03:32:27.981Z,11.63
2018-12-09T03:35:03.960Z,11.53
2018-12-09T03:37:35.259Z,11.36
2018-12-09T03:40:05.871Z,11.22
2018-12-09T03:42:40.189Z,11.04
2018-12-09T03:45:14.157Z,10.89
2018-12-09T03:47:45.496Z,10.72
2018-12-09T03:50:17.044Z,10.55
2018-12-09T03:52:48.394Z,10.38
2018-12-09T03:55:19.609Z,10.25
2018-12-09T03:57:50.961Z,10.11
2018-12-09T04:00:23.179Z,10.00
2018-12-09T04:02:57.259Z,9.90
2018-12-09T04:05:28.594Z,9.82
2018-12-09T04:07:59.832Z,9.75
2018-12-09T04:10:31.216Z,9.67
2018-12-09T04:13:03.385Z,9.63
2018-12-09T04:15:36.571Z,9.58
2018-12-09T04:18:10.632Z,9.56
2018-12-09T04:20:41.866Z,9.52
2018-12-09T04:23:15.861Z,9.50
2018-12-09T04:25:47.178Z,9.46
2018-12-09T04:28:19.373Z,9.43
2018-12-09T04:30:54.248Z,9.41
2018-12-09T04:33:25.658Z,9.39
2018-12-09T04:35:57.658Z,9.05
2018-12-09T04:38:28.902Z,9.35
2018-12-09T04:41:00.905Z,9.32
2018-12-09T04:43:30.775Z,9.28
2018-12-09T04:46:02.914Z,9.27
2018-12-09T04:48:36.950Z,9.25
2018-12-09T04:51:08.392Z,9.23
2018-12-09T04:53:40.413Z,9.23
2018-12-09T04:56:12.578Z,9.23
2018-12-09T04:58:54.233Z,9.24
2018-12-09T05:01:26.105Z,8.92
2018-12-09T05:03:58.201Z,9.25
2018-12-09T05:06:30.341Z,9.27
2018-12-09T05:09:02.253Z,9.29
2018-12-09T05:11:34.689Z,9.32
2018-12-09T05:14:06.295Z,9.34
2018-12-09T05:16:38.507Z,9.37
2018-12-09T05:19:10.720Z,9.38
2018-12-09T05:21:42.534Z,9.39
2018-12-09T05:24:14.674Z,9.40
2018-12-09T05:26:49.575Z,9.42
2018-12-09T05:29:20.997Z,9.45
2018-12-09T05:31:53.146Z,9.46
2018-12-09T05:34:25.345Z,9.48
2018-12-09T05:36:57.377Z,9.50
2018-12-09T05:39:29.496Z,9.51
2018-12-09T05:42:01.606Z,9.54
2018-12-09T05:44:35.659Z,9.55
2018-12-09T05:47:07.110Z,9.58
2018-12-09T05:49:39.130Z,9.37
2018-12-09T05:52:11.276Z,9.62
2018-12-09T05:54:46.195Z,9.62
2018-12-09T05:57:17.663Z,9.62
2018-12-09T05:59:49.802Z,9.62
2018-12-09T06:02:38.713Z,9.62
2018-12-09T06:05:12.910Z,9.60
2018-12-09T06:07:47.118Z,9.57
2018-12-09T06:10:19.243Z,9.55
2018-12-09T06:12:51.214Z,9.53
2018-12-09T06:15:26.127Z,9.50
2018-12-09T06:17:57.694Z,9.50
2018-12-09T06:20:29.721Z,9.48
2018-12-09T06:23:04.511Z,9.47
2018-12-09T06:25:35.846Z,9.46
2018-12-09T06:28:07.971Z,9.46
2018-12-09T06:30:39.265Z,9.46
2018-12-09T06:33:09.317Z,9.46
2018-12-09T06:35:40.539Z,9.47
2018-12-09T06:38:12.709Z,9.15
2018-12-09T06:40:44.882Z,9.16
2018-12-09T06:43:14.798Z,9.50
2018-12-09T06:45:56.283Z,9.51
2018-12-09T06:48:30.707Z,9.53
2018-12-09T06:51:02.073Z,9.20
2018-12-09T06:53:34.418Z,9.54
2018-12-09T06:56:06.669Z,9.53
2018-12-09T06:58:36.251Z,9.55
2018-12-09T07:01:10.948Z,9.56
2018-12-09T07:03:42.274Z,9.57
2018-12-09T07:06:12.314Z,9.58
2018-12-09T07:08:44.531Z,9.58
2018-12-09T07:11:16.680Z,9.59
2018-12-09T07:13:48.836Z,9.60
2018-12-09T07:16:22.991Z,9.60
2018-12-09T07:18:57.019Z,9.61
2018-12-09T07:21:31.342Z,9.60
2018-12-09T07:24:06.052Z,9.63
2018-12-09T07:26:37.286Z,9.64
2018-12-09T07:29:12.098Z,9.65
2018-12-09T07:31:44.321Z,9.67
2018-12-09T07:34:16.366Z,9.68
2018-12-09T07:36:51.106Z,9.70
2018-12-09T07:39:22.633Z,9.71
2018-12-09T07:41:54.762Z,9.41
2018-12-09T07:44:28.722Z,9.76
2018-12-09T07:47:00.140Z,9.77
2018-12-09T07:49:32.100Z,9.80
2018-12-09T07:52:03.925Z,9.81
2018-12-09T07:54:32.259Z,9.84
2018-12-09T07:57:06.619Z,9.85
2018-12-09T07:59:38.111Z,9.87
2018-12-09T08:04:42.190Z,9.90
2018-12-09T08:07:16.191Z,9.93
2018-12-09T08:09:47.504Z,9.95
2018-12-09T08:12:21.463Z,9.98
2018-12-09T08:14:51.123Z,10.00
2018-12-09T08:17:23.560Z,9.72
2018-12-09T08:19:53.314Z,10.06
2018-12-09T08:22:27.278Z,10.08
2018-12-09T08:25:00.097Z,10.11
2018-12-09T08:27:31.609Z,9.99
2018-12-09T08:30:02.850Z,10.17
2018-12-09T08:32:34.882Z,10.19
2018-12-09T08:35:06.115Z,10.22
2018-12-09T08:37:38.131Z,10.23
2018-12-09T08:40:10.280Z,10.25
2018-12-09T08:42:44.859Z,10.25
2018-12-09T08:45:15.008Z,10.26
2018-12-09T08:47:45.023Z,10.29
2018-12-09T08:50:16.358Z,10.30
2018-12-09T08:52:57.507Z,10.31
2018-12-09T08:55:28.882Z,10.33
2018-12-09T08:58:03.510Z,10.35
2018-12-09T09:00:51.457Z,10.36
2018-12-09T09:03:19.772Z,10.38
2018-12-09T09:05:48.062Z,10.39
2018-12-09T09:11:32.419Z,10.40
2018-12-09T09:14:00.732Z,10.40
2018-12-09T09:16:32.151Z,10.41
2018-12-09T09:19:06.577Z,10.42
2018-12-09T09:21:34.930Z,10.44
2018-12-09T09:24:19.455Z,10.45
2018-12-09T09:26:48.831Z,10.46
2018-12-09T09:29:33.696Z,10.47
2018-12-09T09:32:07.782Z,10.50
2018-12-09T09:34:39.790Z,10.52
2018-12-09T09:37:14.294Z,10.53
2018-12-09T09:39:42.632Z,10.56
2018-12-09T09:42:14.563Z,10.58
2018-12-09T09:44:44.454Z,10.62
2018-12-09T09:47:18.805Z,10.67
2018-12-09T09:50:06.595Z,10.70
2018-12-09T09:55:38.027Z,10.78
2018-12-09T09:58:09.282Z,10.78
2018-12-09T10:06:57.149Z,10.82
2018-12-09T10:09:29.330Z,10.83
2018-12-09T10:12:03.723Z,10.84
2018-12-09T10:14:34.945Z,10.84
2018-12-09T10:17:03.401Z,10.85
2018-12-09T10:19:48.486Z,10.86
2018-12-09T10:22:25.731Z,10.88
2018-12-09T10:25:00.580Z,10.90
2018-12-09T10:27:56.869Z,10.92
2018-12-09T10:30:28.226Z,10.93
2018-12-09T10:33:20.193Z,10.95
2018-12-09T10:35:52.075Z,10.96
2018-12-09T10:38:24.741Z,10.99
2018-12-09T10:40:59.646Z,11.00
2018-12-09T10:43:31.507Z,11.01
2018-12-09T10:46:06.201Z,11.01
2018-12-09T10:48:54.363Z,11.00
2018-12-09T10:51:51.973Z,11.02
2018-12-09T10:54:26.901Z,10.94
2018-12-09T11:00:10.216Z,11.02
2018-12-09T11:03:05.647Z,11.03
2018-12-09T11:05:39.978Z,11.03
2018-12-09T11:08:21.353Z,11.06
2018-12-09T11:10:51.723Z,11.08
2018-12-09T11:13:22.574Z,11.10
2018-12-09T11:15:57.351Z,11.11
2018-12-09T11:18:28.644Z,11.12
2018-12-09T11:21:00.454Z,11.14
2018-12-09T11:23:28.812Z,11.16
2018-12-09T11:26:03.513Z,11.19
2018-12-09T11:28:34.817Z,11.21
2018-12-09T11:31:28.819Z,11.26
2018-12-09T11:34:03.002Z,11.31
2018-12-09T11:36:35.068Z,11.34
2018-12-09T11:39:09.310Z,11.39
2018-12-09T11:41:41.483Z,11.42
2018-12-09T11:47:18.554Z,11.47
2018-12-09T11:49:51.607Z,11.49
2018-12-09T11:52:26.202Z,11.49
2018-12-09T11:54:58.019Z,11.48
2018-12-09T12:00:55.568Z,11.45
2018-12-09T12:03:29.771Z,11.46
2018-12-09T12:06:17.671Z,11.48
2018-12-09T12:09:00.251Z,11.49
2018-12-09T12:11:31.870Z,11.51
2018-12-09T12:17:10.007Z,11.55
2018-12-09T12:19:41.323Z,11.57
2018-12-09T12:22:16.702Z,11.61
2018-12-09T12:24:46.527Z,11.64
2018-12-09T12:27:16.650Z,11.65
2018-12-09T12:30:04.533Z,11.64
2018-12-09T12:32:38.981Z,11.62
2018-12-09T12:35:07.273Z,11.55
2018-12-09T12:37:35.662Z,11.41
2018-12-09T12:40:04.976Z,11.20
2018-12-09T12:45:36.427Z,10.62
2018-12-09T12:48:24.746Z,10.42
2018-12-09T12:50:56.071Z,10.19
2018-12-09T12:53:34.290Z,10.01
2018-12-09T12:56:03.478Z,9.85
2018-12-09T12:59:01.015Z,9.72
2018-12-09T13:01:29.433Z,9.57
2018-12-09T13:03:57.793Z,9.48
2018-12-09T13:06:26.553Z,9.37
2018-12-09T13:09:24.249Z,9.30
2018-12-09T13:15:16.771Z,8.77
2018-12-09T13:17:59.310Z,9.13
2018-12-09T13:20:41.887Z,8.76
2018-12-09T13:23:23.409Z,9.06
2018-12-09T13:26:04.974Z,8.71
2018-12-09T13:28:47.427Z,9.02
2018-12-09T13:31:29.981Z,8.78
2018-12-09T13:34:12.619Z,8.68
2018-12-09T13:36:55.162Z,8.69
2018-12-09T13:39:36.724Z,9.09
2018-12-09T13:45:31.305Z,9.13
2018-12-09T13:48:12.611Z,9.15
2018-12-09T13:50:44.943Z,9.18
2018-12-09T13:53:15.680Z,9.22
2018-12-09T13:55:58.046Z,9.28
2018-12-09T13:58:38.707Z,9.33
2018-12-09T14:01:20.197Z,9.10
2018-12-09T14:04:01.604Z,9.42
2018-12-09T14:06:44.215Z,9.06
2018-12-09T14:09:26.482Z,9.43
2018-12-09T14:12:08.011Z,9.44
2018-12-09T14:14:49.560Z,9.44
2018-12-09T14:17:30.277Z,9.45
2018-12-09T14:23:14.476Z,9.06
2018-12-09T14:25:55.176Z,9.05
2018-12-09T14:28:35.981Z,9.42
2018-12-09T14:31:17.596Z,9.44
2018-12-09T14:33:49.203Z,9.46
2018-12-09T14:36:30.459Z,9.48
2018-12-09T14:39:12.060Z,9.48
2018-12-09T14:41:54.667Z,9.49
2018-12-09T14:44:35.321Z,9.52
2018-12-09T14:47:16.803Z,9.16
2018-12-09T14:49:48.005Z,9.54
2018-12-09T14:52:22.958Z,9.56
2018-12-09T14:54:54.353Z,9.58
2018-12-09T14:57:37.206Z,9.59
2018-12-09T15:00:09.424Z,9.60
2018-12-09T15:02:41.363Z,9.60
2018-12-09T15:05:15.845Z,9.63
2018-12-09T15:07:47.689Z,9.65
2018-12-09T15:10:28.616Z,9.66
2018-12-09T15:12:58.230Z,9.68
2018-12-09T15:15:39.147Z,9.69
2018-12-09T15:18:25.697Z,9.70
2018-12-09T15:21:06.369Z,9.70
2018-12-09T15:23:37.863Z,9.71
2018-12-09T15:26:09.898Z,9.71
2018-12-09T15:28:39.645Z,9.71
2018-12-09T15:31:20.627Z,9.33
2018-12-09T15:33:52.081Z,9.73
2018-12-09T15:36:26.559Z,9.73
2018-12-09T15:39:07.926Z,9.73
2018-12-09T15:41:49.341Z,9.73
2018-12-09T15:44:30.865Z,9.73
2018-12-09T15:47:13.179Z,9.72
2018-12-09T15:49:44.498Z,9.72
2018-12-09T15:52:16.487Z,9.71
2018-12-09T15:54:44.841Z,9.69
2018-12-09T15:57:27.688Z,9.66
2018-12-09T16:00:08.583Z,9.29
2018-12-09T16:03:02.669Z,9.59
2018-12-09T16:05:44.186Z,9.55
2018-12-09T16:08:25.628Z,9.52
2018-12-09T16:11:10.591Z,9.47
2018-12-09T16:13:52.104Z,9.07
2018-12-09T16:16:44.149Z,9.09
2018-12-09T16:19:12.427Z,9.44
2018-12-09T16:21:53.595Z,9.45
2018-12-09T16:24:37.038Z,9.47
2018-12-09T16:27:05.353Z,9.47
2018-12-09T16:29:47.492Z,9.16
2018-12-09T16:32:28.206Z,9.49
2018-12-09T16:34:56.473Z,9.49
2018-12-09T16:37:39.517Z,9.50
2018-12-09T16:40:33.186Z,9.19
2018-12-09T16:43:15.559Z,9.52
2018-12-09T16:45:58.072Z,9.53
2018-12-09T16:48:43.344Z,9.51
2018-12-09T16:51:11.781Z,9.52
2018-12-09T16:53:52.963Z,9.11
2018-12-09T16:56:24.960Z,9.49
2018-12-09T16:59:07.030Z,9.14
2018-12-09T17:01:48.534Z,9.48
2018-12-09T17:04:31.216Z,9.13
2018-12-09T17:07:13.636Z,9.46
2018-12-09T17:09:56.286Z,9.46
2018-12-09T17:12:24.640Z,9.44
2018-12-09T17:15:06.278Z,9.43
2018-12-09T17:17:34.568Z,9.43
2018-12-09T17:20:25.985Z,9.42
2018-12-09T17:22:54.326Z,9.42
2018-12-09T17:25:26.089Z,9.42
2018-12-09T17:28:13.830Z,9.42
2018-12-09T17:30:56.854Z,9.42
2018-12-09T17:33:42.319Z,9.42
2018-12-09T17:36:25.054Z,9.07
2018-12-09T17:39:06.584Z,9.01
2018-12-09T17:41:48.123Z,9.06
2018-12-09T17:44:36.182Z,9.40
2018-12-09T17:47:21.108Z,9.41
2018-12-09T17:50:02.293Z,9.41
2018-12-09T17:52:31.892Z,9.40
2018-12-09T17:55:13.064Z,9.39
2018-12-09T17:57:47.483Z,9.15
2018-12-09T18:00:29.032Z,9.05
2018-12-09T18:03:10.626Z,9.39
2018-12-09T18:05:53.076Z,9.37
2018-12-09T18:08:38.214Z,9.35
2018-12-09T18:11:19.374Z,9.17
2018-12-09T18:14:00.944Z,9.33
2018-12-09T18:16:42.408Z,8.96
2018-12-09T18:19:34.888Z,9.30
2018-12-09T18:22:03.176Z,9.28
2018-12-09T18:24:44.034Z,9.27
2018-12-09T18:27:24.808Z,9.27
2018-12-09T18:30:06.869Z,9.22
2018-12-09T18:33:00.817Z,9.26
2018-12-09T18:35:42.871Z,8.92
2018-12-09T18:38:23.825Z,9.26
2018-12-09T18:41:06.038Z,9.26
2018-12-09T18:43:49.634Z,9.26
2018-12-09T18:46:21.391Z,9.26
2018-12-09T18:49:03.545Z,8.93
2018-12-09T18:51:45.188Z,9.27
2018-12-09T18:54:26.940Z,8.90
2018-12-09T18:57:10.486Z,9.25
2018-12-09T18:59:53.056Z,9.25
2018-12-09T19:02:38.501Z,9.24
2018-12-09T19:05:12.825Z,9.24
2018-12-09T19:07:54.225Z,9.23
2018-12-09T19:10:38.965Z,9.22
2018-12-09T19:13:20.823Z,8.78
2018-12-09T19:16:02.975Z,8.88
2018-12-09T19:21:03.750Z,9.12
2018-12-09T19:23:38.534Z,9.10
2018-12-09T19:26:12.758Z,9.08
2018-12-09T19:28:54.951Z,9.06
2018-12-09T19:31:26.927Z,8.89
2018-12-09T19:34:12.102Z,9.06
2018-12-09T19:36:43.545Z,8.75
2018-12-09T19:39:15.928Z,9.04
2018-12-09T19:41:58.211Z,9.05
2018-12-09T19:44:38.897Z,9.04
2018-12-09T19:47:13.167Z,9.02
2018-12-09T19:49:55.351Z,8.66
2018-12-09T19:52:26.919Z,9.00
2018-12-09T19:55:12.061Z,8.98
2018-12-09T19:57:53.275Z,8.95
2018-12-09T20:00:23.323Z,8.92
2018-12-09T20:03:06.245Z,8.89
2018-12-09T20:05:37.846Z,8.84
2018-12-09T20:08:10.532Z,8.82
2018-12-09T20:10:52.029Z,8.78
2018-12-09T20:13:25.547Z,8.76
2018-12-09T20:16:07.647Z,8.49
2018-12-09T20:18:42.241Z,8.72
2018-12-09T20:21:14.213Z,8.72
2018-12-09T20:23:48.748Z,8.72
2018-12-09T20:26:18.710Z,8.72
2018-12-09T20:31:53.754Z,8.69
2018-12-09T20:37:28.928Z,8.65
2018-12-09T20:40:01.496Z,8.62
2018-12-09T20:42:32.838Z,8.58
2018-12-09T20:45:08.350Z,8.56
2018-12-09T20:47:41.672Z,8.53
2018-12-09T20:50:15.016Z,8.49
2018-12-09T20:52:49.464Z,8.47
2018-12-09T20:55:24.325Z,8.46
2018-12-09T21:00:59.867Z,8.47
2018-12-09T21:03:35.678Z,8.47
2018-12-09T21:06:07.187Z,8.48
2018-12-09T21:08:36.989Z,8.48
2018-12-09T21:11:09.089Z,8.50
2018-12-09T21:13:41.221Z,8.50
2018-12-09T21:16:13.311Z,8.52
2018-12-09T21:18:45.228Z,8.54
2018-12-09T21:21:17.371Z,8.56
2018-12-09T21:23:50.294Z,8.57
2018-12-09T21:26:25.163Z,8.59
2018-12-09T21:28:58.460Z,8.61
2018-12-09T21:31:30.053Z,8.63
2018-12-09T21:34:05.125Z,8.64
2018-12-09T21:36:36.925Z,8.64
2018-12-09T21:39:21.878Z,8.66
2018-12-09T21:41:53.534Z,8.68
2018-12-09T21:44:25.688Z,8.69
2018-12-09T21:46:57.794Z,8.71
2018-12-09T21:49:32.540Z,8.71
2018-12-09T21:52:04.325Z,8.71
2018-12-09T21:54:34.444Z,8.73
2018-12-09T21:57:09.374Z,8.74
2018-12-09T21:59:50.040Z,8.75
2018-12-09T22:02:22.056Z,8.76
2018-12-09T22:04:53.568Z,8.76
2018-12-09T22:07:28.624Z,8.76
2018-12-09T22:10:09.901Z,8.73
2018-12-09T22:12:41.701Z,8.69
2018-12-09T22:15:13.685Z,8.67
2018-12-09T22:17:45.791Z,8.64
2018-12-09T22:20:19.921Z,8.61
2018-12-09T22:23:05.651Z,8.60
2018-12-09T22:25:40.075Z,8.57
2018-12-09T22:28:11.591Z,8.57
2018-12-09T22:30:42.825Z,8.55
2018-12-09T22:33:14.161Z,8.53
2018-12-09T22:35:49.502Z,8.50
2018-12-09T22:38:21.050Z,8.50
2018-12-09T22:40:52.307Z,8.49
2018-12-09T22:43:26.289Z,8.48
2018-12-09T22:45:55.811Z,8.47
2018-12-09T22:48:27.854Z,8.15
2018-12-09T22:50:59.194Z,8.47
2018-12-09T22:53:31.210Z,8.48
2018-12-09T22:56:01.342Z,8.49
2018-12-09T22:58:32.545Z,8.49
2018-12-09T23:01:10.153Z,8.48
2018-12-09T23:03:39.773Z,8.49
2018-12-09T23:06:09.800Z,8.48
2018-12-09T23:08:44.593Z,8.48
2018-12-09T23:11:42.901Z,8.49
2018-12-09T23:14:17.198Z,8.50
2018-12-09T23:19:52.809Z,8.52
2018-12-09T23:22:24.650Z,8.53
2018-12-09T23:24:56.822Z,8.55
2018-12-09T23:27:30.803Z,8.54
2018-12-09T23:30:02.177Z,8.55
2018-12-09T23:32:33.463Z,8.54
2018-12-09T23:35:08.474Z,8.54
2018-12-09T23:37:42.449Z,8.54
2018-12-09T23:40:13.752Z,8.55
2018-12-09T23:42:44.974Z,8.54
2018-12-09T23:45:16.300Z,8.54
2018-12-09T23:47:48.118Z,8.54
2018-12-09T23:50:20.221Z,8.53
2018-12-09T23:52:52.345Z,8.52
2018-12-09T23:55:26.425Z,8.52
2018-12-09T23:57:57.622Z,8.50
